Aérodrome :
LOGIN :

S'inscrire | Disclaimer

   EN    FR    IT 

 










Légende :    VFR   VFR Marginal   IFR   IFR Intensif   IFR Très Intensif
Visi : 
Plafond : 
>= 8 km
>= 3000ft
5 à 8 km
1000 à 3000 ft
1500m à 5 km
500 à 1000 ft
800 à 1500m
200 à 500 ft
< 800m
< 200 ft
Symboles :   Orages  Brouillard  Fortes neiges  Fortes précipitations  Vent > 20 kt
SIGMETs :   Divers  Orages  Givrage  Turbulence  Onde Orograph.  Cendres Volcan.






- Altitude de l'aérodrome : 124 ft
- Code IATA : RNS


LFRN - Rennes

DERNIER METAR :
  • 272130Z AUTO 21004KT CAVOK 04/01 Q1018 NOSIG

METARs EXPIRÉS :
  • 272100Z AUTO 22003KT CAVOK 04/01 Q1018 NOSIG
  • 272030Z AUTO 24002KT CAVOK 04/01 Q1018 NOSIG
  • 272000Z AUTO 23004KT CAVOK 05/02 Q1017 NOSIG
  • 271930Z AUTO 26004KT CAVOK 05/01 Q1017 NOSIG
  • 271900Z AUTO 26004KT CAVOK 06/02 Q1016 NOSIG

TAF TAF LFRN
Valide du 27 à 18h jusqu'au 28 à 18h UTC


271700Z 2718/2818 31010KT 9999 SCT035
BECMG 2718/2720 VRB04KT
BECMG 2802/2804 17010KT
TEMPO 2804/2807 4000 RA
BECMG 2806/2808 OVC008
TEMPO 2808/2815 3000 RADZ BKN004
BECMG 2813/2815 22015G25KT
PROB40
TEMPO 2815/2818 4000 DZ
BECMG 2816/2818 BKN015
ATIS : +33 2 99 67 72 50



MET'MAP, la Météo Aéronautique d'un coup d'oeil ! - Copyright ORBIFLY Décembre 2007 - Disclaimer

ORBIFLY MET'MAP TEAM :

Programmation & Développement : Alexandra Zaïnal
Sur une idée originale de : Baudouin d'Aumeries
Assistance à la programmation : Marc-Olivier Méhu
Soutien technique & logistique : Manuel Goepfert

Contact : metmap@orbifly.com




SOURCES & CREDITS :

   NOAA